Alle Angaben ohne Gewähr!
Bitte informieren Sie sich zusätzlich über offizielle Wetter-Stellen wie z.B. http://www.flug-wetter.at.

L O X Z


LOXZ 201550Z 09005KT 30KM FEW040SC BKN060SC BKN130AC 11/03 Q1018 NOSIG
LOXZ 201520Z 35006KT 30KM FEW040SC BKN060SC BKN130AC 12/02 Q1018 NOSIG
LOXZ 201450Z VRB03KT 30KM FEW040SC BKN060SC BKN130AC 12/02 Q1017 NOSIG

TAF LOXZ 201415Z 2015/2024 VRB03KT 99999 SCT040 BKN060 BKN130

L O W K


LOWK 201550Z VRB01KT 9999 FEW050 SCT070 BKN130 14/09 Q1017 NOSIG
LOWK 201520Z 35002KT 9999 FEW050 SCT070 BKN130 13/10 Q1017 NOSIG
LOWK 201450Z VRB02KT 9999 FEW050 SCT070 BKN130 14/08 Q1017 NOSIG

TAF LOWK 201115Z 2012/2112 30004KT 9999 FEW050 SCT070 BKN100 TX16/2012Z TN06/2104Z
  TEMPO 2012/2017 35008G18KT BKN070
  PROB30
  TEMPO 2102/2107 BKN005

L O W G


LOWG 201550Z 34007KT 9999 SCT050 BKN100 14/06 Q1016 NOSIG
LOWG 201520Z 34008KT 300V360 9999 FEW045 SCT060 BKN100 14/05 Q1016 NOSIG
LOWG 201450Z 35010KT 9999 FEW045 SCT060 BKN100 14/06 Q1016 NOSIG

TAF LOWG 201115Z 2012/2112 34010KT 9999 FEW040 BKN090 TX17/2112Z TN09/2103Z
  BECMG 2017/2019 32004KT CAVOK
  BECMG 2108/2110 33008KT 9999 FEW060